Time;durP1;ratioP1;P1;durP2;ratioP2;P2;SDS_P1;SDS_P2;PMS_P1;PMS_P2;Temp;Humidity;BMP_temperature;BMP_pressure;BME280_temperature;BME280_humidity;BME280_pressure;Samples;Min_cycle;Max_cycle;Signal;HPM_P1;HPM_P2
2022/03/15 18:22:42;;;;;;;3.03;1.70;;;15.40;69.80;;;;;;2299421;62;29967;-70
2022/03/15 18:25:10;;;;;;;6.53;2.22;;;15.40;69.80;;;;;;2284067;62;30127;-73
2022/03/15 18:27:36;;;;;;;4.28;1.80;;;15.50;70.90;;;;;;2290768;62;30099;-72
2022/03/15 18:30:04;;;;;;;7.95;2.22;;;15.50;71.80;;;;;;2290943;62;30953;-70
2022/03/15 18:32:30;;;;;;;29.52;3.55;;;15.60;73.50;;;;;;2276480;62;30071;-68
2022/03/15 18:34:57;;;;;;;20.08;2.95;;;15.60;73.10;;;;;;2275926;62;30082;-77
2022/03/15 18:37:24;;;;;;;9.20;2.30;;;15.70;73.80;;;;;;2282735;62;30666;-74
2022/03/15 18:39:50;;;;;;;4.70;2.10;;;15.80;73.70;;;;;;2282973;62;30801;-75
2022/03/15 18:42:16;;;;;;;10.35;2.80;;;15.80;73.70;;;;;;2285017;62;30070;-72
2022/03/15 18:44:43;;;;;;;8.25;2.30;;;15.90;73.70;;;;;;2283398;62;30030;-71
2022/03/15 18:47:09;;;;;;;6.28;2.10;;;16.00;73.80;;;;;;2284020;62;30060;-73
2022/03/15 18:49:39;;;;;;;9.25;1.90;;;16.10;73.70;;;;;;2291153;62;31360;-70
2022/03/15 18:52:05;;;;;;;5.50;1.88;;;16.10;73.50;;;;;;2290845;62;30094;-72
2022/03/15 18:54:31;;;;;;;4.57;1.75;;;16.20;73.50;;;;;;2276982;62;30965;-74
2022/03/15 18:56:58;;;;;;;4.63;1.55;;;16.30;73.40;;;;;;2290833;62;29963;-74
2022/03/15 18:59:25;;;;;;;2.85;2.03;;;16.30;73.30;;;;;;2290540;62;30949;-74
2022/03/15 19:01:51;;;;;;;4.30;1.90;;;16.40;73.20;;;;;;2290812;62;30581;-74
2022/03/15 19:04:18;;;;;;;5.18;1.83;;;16.30;73.00;;;;;;2290588;62;30063;-73
2022/03/15 19:06:44;;;;;;;3.45;1.83;;;16.40;72.90;;;;;;2291164;62;30369;-73
2022/03/15 19:09:12;;;;;;;5.15;2.15;;;16.40;72.90;;;;;;2283691;62;31704;-71
2022/03/15 19:11:42;;;;;;;3.00;1.45;;;16.40;72.90;;;;;;2283288;62;30858;-71
2022/03/15 19:14:14;;;;;;;2.33;2.10;;;16.50;72.70;;;;;;2291123;62;30109;-72
2022/03/15 19:16:41;;;;;;;;;;;16.50;72.70;;;;;;2282066;62;30047;-71
2022/03/15 19:19:10;;;;;;;3.90;1.55;;;16.60;70.50;;;;;;2275422;62;30090;-70
2022/03/15 19:21:36;;;;;;;2.63;1.77;;;16.70;72.50;;;;;;2275173;62;30106;-70
2022/03/15 19:24:03;;;;;;;4.75;1.50;;;16.70;72.50;;;;;;2277379;62;30116;-71
2022/03/15 19:26:30;;;;;;;2.78;1.50;;;16.80;72.40;;;;;;2283438;62;30111;-70
2022/03/15 19:28:57;;;;;;;4.43;1.50;;;16.80;72.20;;;;;;2290231;62;31093;-71
2022/03/15 19:31:25;;;;;;;3.38;1.67;;;16.90;72.10;;;;;;2283213;62;30605;-69
2022/03/15 19:33:52;;;;;;;4.47;2.05;;;17.00;72.10;;;;;;2278251;62;30206;-71
2022/03/15 19:36:18;;;;;;;1.60;1.50;;;17.00;72.00;;;;;;2285377;62;30060;-71
2022/03/15 19:38:45;;;;;;;2.05;1.50;;;17.00;71.80;;;;;;2277960;62;32305;-72
2022/03/15 19:41:12;;;;;;;2.03;1.75;;;17.10;71.70;;;;;;2268849;62;30219;-70
2022/03/15 19:43:38;;;;;;;2.35;1.70;;;17.10;71.60;;;;;;2277903;62;29986;-71
2022/03/15 19:46:05;;;;;;;1.73;1.55;;;17.10;71.50;;;;;;2271106;62;30077;-71
2022/03/15 19:48:33;;;;;;;1.73;1.45;;;17.10;71.40;;;;;;2282767;62;31778;-70
2022/03/15 19:50:59;;;;;;;2.35;1.58;;;17.20;71.40;;;;;;2283185;62;30756;-70
2022/03/15 19:53:25;;;;;;;1.55;1.45;;;17.20;71.20;;;;;;2284492;62;30167;-71
2022/03/15 19:55:52;;;;;;;2.83;1.80;;;17.20;71.10;;;;;;2285378;62;30524;-71
2022/03/15 19:58:21;;;;;;;1.65;1.55;;;17.20;71.00;;;;;;2278195;62;30835;-70
2022/03/15 20:00:52;;;;;;;1.90;1.77;;;17.20;70.80;;;;;;2284932;62;31959;-70
2022/03/15 20:03:22;;;;;;;1.50;1.40;;;17.20;70.80;;;;;;2283975;62;29984;-70
2022/03/15 20:05:51;;;;;;;1.70;1.60;;;17.20;70.60;;;;;;2277262;62;30064;-70
2022/03/15 20:08:18;;;;;;;1.63;1.52;;;17.20;70.70;;;;;;2276936;62;30023;-70
2022/03/15 20:10:44;;;;;;;1.67;1.58;;;17.10;70.50;;;;;;2276870;62;30696;-70
2022/03/15 20:13:11;;;;;;;1.98;1.75;;;17.10;70.40;;;;;;2269573;62;30245;-72
2022/03/15 20:15:38;;;;;;;1.60;1.50;;;17.10;70.30;;;;;;2276741;62;30048;-70
2022/03/15 20:18:07;;;;;;;1.98;1.80;;;17.10;70.30;;;;;;2269688;62;30943;-70
2022/03/15 20:20:41;;;;;;;1.90;1.75;;;17.10;70.20;;;;;;2269657;62;31641;-69
2022/03/15 20:23:10;;;;;;;1.90;1.80;;;17.10;70.10;;;;;;2263090;62;30447;-69
2022/03/15 20:25:38;;;;;;;1.90;1.65;;;17.20;70.10;;;;;;2276967;62;30162;-69
2022/03/15 20:28:06;;;;;;;1.80;1.70;;;17.20;70.10;;;;;;2281866;62;30097;-69
2022/03/15 20:30:32;;;;;;;4.75;1.95;;;17.20;70.00;;;;;;2277296;62;30049;-70
2022/03/15 20:32:59;;;;;;;1.92;1.83;;;17.20;70.00;;;;;;2285045;62;30178;-69
2022/03/15 20:35:26;;;;;;;2.35;1.90;;;17.20;69.90;;;;;;2277759;62;30461;-70
2022/03/15 20:37:52;;;;;;;2.10;2.00;;;17.20;69.90;;;;;;2284884;62;30294;-69
2022/03/15 20:40:22;;;;;;;2.25;2.05;;;17.20;69.80;;;;;;2277513;62;31604;-70
2022/03/15 20:45:37;;;;;;;2.63;1.92;;;17.20;69.70;;;;;;2284558;62;30121;-70
2022/03/15 20:48:06;;;;;;;2.50;2.30;;;17.20;69.70;;;;;;2277789;62;31045;-69
2022/03/15 20:50:34;;;;;;;2.33;2.13;;;17.20;69.50;;;;;;2284600;62;30719;-70
2022/03/15 20:53:04;;;;;;;2.25;2.05;;;17.10;69.50;;;;;;2276767;62;30253;-70
2022/03/15 20:55:43;;;;;;;2.47;2.28;;;17.20;69.40;;;;;;2284419;62;30045;-71
2022/03/15 20:58:18;;;;;;;2.13;1.90;;;17.20;69.60;;;;;;2271731;62;30367;-73
2022/03/15 21:00:45;;;;;;;1.98;1.88;;;17.20;69.20;;;;;;2284751;62;30736;-72
2022/03/15 21:03:16;;;;;;;3.30;2.00;;;17.20;69.50;;;;;;2277367;62;30119;-72
2022/03/15 21:05:42;;;;;;;2.33;2.05;;;17.20;69.40;;;;;;2277445;62;30013;-71
2022/03/15 21:08:08;;;;;;;2.47;1.80;;;17.20;69.40;;;;;;2284824;62;30152;-71
2022/03/15 21:10:40;;;;;;;2.25;2.10;;;17.20;69.30;;;;;;2277283;62;30083;-71
2022/03/15 21:13:06;;;;;;;3.15;2.85;;;17.10;69.20;;;;;;2275690;62;30066;-71
2022/03/15 21:15:32;;;;;;;3.80;2.50;;;17.10;69.40;;;;;;2276552;62;30538;-72
2022/03/15 21:18:06;;;;;;;2.67;2.47;;;17.10;69.40;;;;;;2268683;62;31242;-72
2022/03/15 21:20:41;;;;;;;3.03;2.83;;;17.00;69.50;;;;;;2276433;62;30117;-72
2022/03/15 21:23:07;;;;;;;2.75;2.20;;;16.90;69.40;;;;;;2276337;62;30020;-72
2022/03/15 21:25:37;;;;;;;3.28;2.30;;;16.90;69.80;;;;;;2269102;62;30171;-72
2022/03/15 21:28:08;;;;;;;2.80;2.60;;;16.90;70.00;;;;;;2269482;62;31322;-72
2022/03/15 21:30:36;;;;;;;3.03;2.38;;;16.90;70.70;;;;;;2276360;62;30501;-72
2022/03/15 21:33:05;;;;;;;2.58;2.38;;;16.90;69.90;;;;;;2276329;62;30187;-72
2022/03/15 21:35:31;;;;;;;2.92;2.47;;;16.90;69.90;;;;;;2276583;62;30526;-68
2022/03/15 21:37:57;;;;;;;14.05;3.78;;;17.00;69.90;;;;;;2277437;62;31085;-67
2022/03/15 21:40:28;;;;;;;3.75;3.10;;;17.00;70.00;;;;;;2279197;62;30715;-69
2022/03/15 21:42:54;;;;;;;3.15;2.80;;;16.90;69.60;;;;;;2274539;62;31102;-68
2022/03/15 21:45:20;;;;;;;3.50;2.67;;;16.90;69.30;;;;;;2282658;62;30356;-68
2022/03/15 21:47:47;;;;;;;3.45;2.65;;;16.90;69.30;;;;;;2281672;62;31320;-68
2022/03/15 21:50:14;;;;;;;3.17;2.00;;;16.90;69.30;;;;;;2281990;62;30552;-68
2022/03/15 21:52:40;;;;;;;2.70;2.50;;;16.90;69.30;;;;;;2283199;62;30288;-68
2022/03/15 21:55:08;;;;;;;2.78;2.42;;;16.90;69.40;;;;;;2281217;62;30364;-70
2022/03/15 21:57:35;;;;;;;4.45;2.70;;;16.90;69.40;;;;;;2271304;62;30970;-70
2022/03/15 22:00:06;;;;;;;2.70;2.50;;;16.90;69.50;;;;;;2278614;62;30092;-69
2022/03/15 22:02:32;;;;;;;2.60;2.38;;;16.90;69.50;;;;;;2275857;62;30116;-68
2022/03/15 22:04:58;;;;;;;3.80;3.50;;;16.90;69.40;;;;;;2283264;62;30056;-68
2022/03/15 22:07:25;;;;;;;3.40;3.10;;;16.90;69.40;;;;;;2282961;62;30094;-68
2022/03/15 22:09:51;;;;;;;4.85;3.10;;;16.90;69.30;;;;;;2275332;62;30065;-69
2022/03/15 22:12:18;;;;;;;3.20;2.90;;;16.80;69.30;;;;;;2274961;62;30127;-68
2022/03/15 22:14:44;;;;;;;2.72;2.53;;;16.80;69.30;;;;;;2274812;62;30154;-69
2022/03/15 22:17:10;;;;;;;3.70;3.20;;;16.80;69.30;;;;;;2267619;62;30169;-70
2022/03/15 22:19:38;;;;;;;3.17;2.88;;;16.70;70.00;;;;;;2261061;62;30764;-69
2022/03/15 22:22:04;;;;;;;4.18;3.28;;;16.70;69.50;;;;;;2260729;62;30121;-68
2022/03/15 22:24:30;;;;;;;3.88;3.25;;;16.70;69.60;;;;;;2274987;62;29851;-68
2022/03/15 22:26:56;;;;;;;7.18;3.67;;;16.60;69.60;;;;;;2275024;62;29992;-69
2022/03/15 22:29:24;;;;;;;4.03;3.22;;;16.60;69.70;;;;;;2267423;62;30137;-69
